Welton, Iowa
Current Conditions -  °F | °C
As of 6:55 PM on Tuesday 21 Oct 2014 (Local Time) from KCWI Reporting Station
Clear Clear  
Wind Chill: 41°   Ceiling: Unl
Heat Index: 45°   Visibility: 10mi
Dew Point: 36°   Wind: 6mph
Humidity: 71%   Direction: 60°ENE
Pressure: 30.24"   Gusts: NA
Location:  41.91°N, 90.6°W
Report Text: KCWI 212355Z AUTO 06005KT 10SM CLR 07/02 A3024 RMK AO1 10140 20070 401400020 52014
Loading
Personal Weather Stations






























Interactive Weather Map
Tropical Storm Tracking
New forecast layout! Learn more

10-Day Weather Forecast

Advertisements
Track Severe Weather on mobile